createdAt,value
2018-07-07T00:01:13.438Z,94.60
2018-07-07T00:03:42.055Z,94.80
2018-07-07T00:06:10.646Z,95.20
2018-07-07T00:08:39.976Z,95.90
2018-07-07T00:11:08.744Z,95.70
2018-07-07T00:13:37.431Z,95.80
2018-07-07T00:16:06.065Z,96.10
2018-07-07T00:18:34.618Z,96.30
2018-07-07T00:21:03.196Z,96.40
2018-07-07T00:23:31.724Z,96.50
2018-07-07T00:26:02.614Z,96.90
2018-07-07T00:28:31.635Z,97.10
2018-07-07T00:31:00.261Z,97.50
2018-07-07T00:33:28.819Z,97.90
2018-07-07T00:35:57.364Z,98.40
2018-07-07T00:38:25.918Z,98.70
2018-07-07T00:40:54.600Z,99.20
2018-07-07T00:43:23.356Z,99.50
2018-07-07T00:45:51.883Z,99.90
2018-07-07T00:48:20.480Z,99.90
2018-07-07T00:50:49.094Z,99.90
2018-07-07T00:53:17.661Z,99.90
2018-07-07T00:55:46.203Z,99.90
2018-07-07T00:58:14.812Z,99.90
2018-07-07T01:00:49.498Z,99.90
2018-07-07T01:03:18.167Z,99.90
2018-07-07T01:05:47.656Z,99.90
2018-07-07T01:08:16.879Z,99.90
2018-07-07T01:10:45.492Z,99.90
2018-07-07T01:13:14.646Z,99.90
2018-07-07T01:15:43.579Z,99.90
2018-07-07T01:18:12.292Z,99.90
2018-07-07T01:20:40.829Z,99.90
2018-07-07T01:23:09.440Z,99.90
2018-07-07T01:25:37.969Z,99.90
2018-07-07T01:28:06.805Z,99.90
2018-07-07T01:30:35.335Z,99.90
2018-07-07T01:33:03.925Z,99.90
2018-07-07T01:35:32.563Z,99.90
2018-07-07T01:38:01.110Z,99.90
2018-07-07T01:40:29.656Z,99.90
2018-07-07T01:42:58.644Z,99.90
2018-07-07T01:47:55.466Z,99.90
2018-07-07T01:52:52.261Z,99.90
2018-07-07T01:55:20.968Z,99.90
2018-07-07T01:57:49.521Z,99.90
2018-07-07T02:00:18.070Z,99.90
2018-07-07T02:02:46.633Z,99.90
2018-07-07T02:05:15.192Z,99.90
2018-07-07T02:07:43.767Z,99.90
2018-07-07T02:10:12.340Z,99.90
2018-07-07T02:12:40.952Z,99.90
2018-07-07T02:15:09.913Z,99.90
2018-07-07T02:17:38.473Z,99.90
2018-07-07T02:20:07.047Z,99.90
2018-07-07T02:22:35.661Z,99.90
2018-07-07T02:25:04.273Z,99.90
2018-07-07T02:27:32.876Z,99.90
2018-07-07T02:30:01.438Z,99.90
2018-07-07T02:32:29.968Z,99.90
2018-07-07T02:34:59.910Z,99.90
2018-07-07T02:37:28.416Z,99.90
2018-07-07T02:39:56.983Z,99.90
2018-07-07T02:42:26.348Z,99.90
2018-07-07T02:44:54.856Z,99.90
2018-07-07T02:47:23.460Z,99.90
2018-07-07T02:49:51.995Z,99.90
2018-07-07T02:52:21.397Z,99.90
2018-07-07T02:54:49.965Z,99.90
2018-07-07T02:57:19.126Z,99.90
2018-07-07T03:02:15.990Z,99.90
2018-07-07T03:07:12.824Z,99.90
2018-07-07T03:09:41.358Z,99.90
2018-07-07T03:12:09.963Z,99.90
2018-07-07T03:14:38.524Z,99.90
2018-07-07T03:17:07.082Z,99.90
2018-07-07T03:19:35.640Z,99.90
2018-07-07T03:22:04.228Z,99.90
2018-07-07T03:24:32.737Z,99.90
2018-07-07T03:27:01.286Z,99.90
2018-07-07T03:29:29.824Z,99.90
2018-07-07T03:31:59.581Z,99.90
2018-07-07T03:34:28.676Z,99.90
2018-07-07T03:36:58.139Z,99.90
2018-07-07T03:39:27.221Z,99.90
2018-07-07T03:41:55.781Z,99.90
2018-07-07T03:44:24.468Z,99.90
2018-07-07T03:46:55.143Z,99.90
2018-07-07T03:49:23.733Z,99.90
2018-07-07T03:51:52.224Z,99.90
2018-07-07T03:54:21.785Z,99.90
2018-07-07T03:56:50.327Z,99.90
2018-07-07T03:59:18.998Z,99.90
2018-07-07T04:01:47.614Z,99.90
2018-07-07T04:04:16.085Z,99.90
2018-07-07T04:06:44.703Z,99.90
2018-07-07T04:09:13.262Z,99.90
2018-07-07T04:11:41.824Z,99.90
2018-07-07T04:14:10.394Z,99.90
2018-07-07T04:16:38.963Z,99.90
2018-07-07T04:19:07.552Z,99.90
2018-07-07T04:21:36.099Z,99.90
2018-07-07T04:24:04.711Z,99.90
2018-07-07T04:26:33.398Z,99.90
2018-07-07T04:29:02.125Z,99.90
2018-07-07T04:31:30.622Z,99.90
2018-07-07T04:33:59.149Z,99.90
2018-07-07T04:36:27.728Z,99.90
2018-07-07T04:38:56.270Z,99.90
2018-07-07T04:41:24.845Z,99.90
2018-07-07T04:43:53.339Z,99.90
2018-07-07T04:46:21.960Z,99.90
2018-07-07T04:48:50.490Z,99.90
2018-07-07T04:51:19.004Z,99.90
2018-07-07T04:53:47.629Z,99.90
2018-07-07T04:56:16.160Z,99.90
2018-07-07T04:58:44.837Z,99.90
2018-07-07T05:01:13.437Z,99.90
2018-07-07T05:03:41.945Z,99.90
2018-07-07T05:06:10.976Z,99.90
2018-07-07T05:08:39.664Z,99.90
2018-07-07T05:11:08.366Z,99.90
2018-07-07T05:13:37.170Z,99.90
2018-07-07T05:16:05.835Z,99.90
2018-07-07T05:18:34.371Z,99.90
2018-07-07T05:21:02.918Z,99.90
2018-07-07T05:23:31.475Z,99.90
2018-07-07T05:26:00.687Z,99.90
2018-07-07T05:28:29.268Z,99.90
2018-07-07T05:30:57.800Z,99.90
2018-07-07T05:33:27.071Z,99.90
2018-07-07T05:35:55.835Z,99.90
2018-07-07T05:38:24.327Z,99.90
2018-07-07T05:40:53.737Z,99.90
2018-07-07T05:45:50.899Z,99.90
2018-07-07T05:48:19.481Z,99.90
2018-07-07T05:50:48.033Z,99.90
2018-07-07T05:53:16.654Z,99.90
2018-07-07T05:55:45.713Z,99.90
2018-07-07T05:58:14.324Z,99.90
2018-07-07T06:00:42.928Z,99.90
2018-07-07T06:03:11.764Z,99.90
2018-07-07T06:05:40.444Z,99.90
2018-07-07T06:08:08.964Z,99.90
2018-07-07T06:10:37.559Z,99.90
2018-07-07T06:13:06.456Z,99.90
2018-07-07T06:15:35.079Z,99.90
2018-07-07T06:18:03.967Z,99.90
2018-07-07T06:20:32.638Z,99.90
2018-07-07T06:23:01.267Z,99.90
2018-07-07T06:25:30.633Z,99.90
2018-07-07T06:28:00.844Z,99.90
2018-07-07T06:30:29.399Z,99.90
2018-07-07T06:32:58.256Z,99.90
2018-07-07T06:35:27.286Z,99.90
2018-07-07T06:37:55.867Z,99.90
2018-07-07T06:40:24.591Z,99.90
2018-07-07T06:42:53.542Z,99.90
2018-07-07T06:45:22.132Z,99.90
2018-07-07T06:47:50.765Z,99.90
2018-07-07T06:50:19.375Z,99.90
2018-07-07T06:52:47.912Z,99.90
2018-07-07T06:55:16.470Z,99.90
2018-07-07T06:57:45.040Z,99.90
2018-07-07T07:00:13.635Z,99.90
2018-07-07T07:02:42.225Z,99.90
2018-07-07T07:05:10.735Z,99.90
2018-07-07T07:07:39.288Z,99.90
2018-07-07T07:10:07.817Z,99.90
2018-07-07T07:12:36.371Z,99.90
2018-07-07T07:15:04.905Z,99.90
2018-07-07T07:17:33.404Z,99.90
2018-07-07T07:20:02.444Z,99.90
2018-07-07T07:22:31.082Z,99.90
2018-07-07T07:24:59.645Z,99.90
2018-07-07T07:27:28.573Z,99.90
2018-07-07T07:29:57.399Z,99.90
2018-07-07T07:32:26.111Z,99.90
2018-07-07T07:34:54.712Z,99.90
2018-07-07T07:37:23.290Z,99.90
2018-07-07T07:39:51.802Z,99.90
2018-07-07T07:42:20.357Z,99.90
2018-07-07T07:44:49.033Z,99.90
2018-07-07T07:47:17.493Z,99.90
2018-07-07T07:49:46.109Z,99.90
2018-07-07T07:52:14.871Z,99.90
2018-07-07T07:54:43.454Z,99.90
2018-07-07T07:57:12.770Z,99.90
2018-07-07T07:59:41.482Z,99.90
2018-07-07T08:02:10.176Z,99.90
2018-07-07T08:04:38.742Z,99.90
2018-07-07T08:07:07.427Z,99.90
2018-07-07T08:09:36.074Z,99.90
2018-07-07T08:12:04.747Z,99.90
2018-07-07T08:14:33.291Z,99.90
2018-07-07T08:17:01.918Z,99.90
2018-07-07T08:19:30.511Z,99.90
2018-07-07T08:21:59.272Z,98.80
2018-07-07T08:24:27.880Z,99.60
2018-07-07T08:26:56.491Z,98.70
2018-07-07T08:29:25.157Z,94.70
2018-07-07T08:31:53.703Z,94.50
2018-07-07T08:34:22.299Z,95.70
2018-07-07T08:36:50.922Z,94.30
2018-07-07T08:39:19.465Z,93.90
2018-07-07T08:41:48.030Z,93.80
2018-07-07T08:44:16.557Z,93.00
2018-07-07T08:46:45.239Z,92.00
2018-07-07T08:49:13.857Z,92.10
2018-07-07T08:51:42.419Z,93.30
2018-07-07T08:56:39.268Z,92.90
2018-07-07T08:59:07.833Z,92.50
2018-07-07T09:01:36.624Z,92.10
2018-07-07T09:04:05.211Z,92.30
2018-07-07T09:06:33.720Z,93.20
2018-07-07T09:09:02.215Z,93.00
2018-07-07T09:11:30.852Z,91.70
2018-07-07T09:13:59.436Z,92.30
2018-07-07T09:16:27.949Z,91.30
2018-07-07T09:18:56.484Z,90.90
2018-07-07T09:21:25.415Z,91.20
2018-07-07T09:23:53.938Z,86.10
2018-07-07T09:26:22.581Z,86.80
2018-07-07T09:28:51.169Z,87.40
2018-07-07T09:31:19.731Z,89.30
2018-07-07T09:33:48.315Z,88.30
2018-07-07T09:36:17.179Z,88.10
2018-07-07T09:38:45.773Z,88.10
2018-07-07T09:41:14.284Z,88.40
2018-07-07T09:43:42.880Z,87.80
2018-07-07T09:46:11.356Z,87.70
2018-07-07T09:48:40.019Z,81.80
2018-07-07T09:51:08.651Z,79.80
2018-07-07T09:53:37.598Z,81.80
2018-07-07T09:56:06.128Z,83.40
2018-07-07T09:58:34.700Z,77.80
2018-07-07T10:01:03.321Z,78.00
2018-07-07T10:03:31.845Z,78.90
2018-07-07T10:06:00.826Z,74.60
2018-07-07T10:08:29.321Z,71.00
2018-07-07T10:13:26.146Z,74.60
2018-07-07T10:15:54.880Z,69.00
2018-07-07T10:18:23.395Z,73.50
2018-07-07T10:20:51.969Z,69.70
2018-07-07T10:23:20.485Z,66.50
2018-07-07T10:25:48.993Z,69.60
2018-07-07T10:28:17.769Z,72.30
2018-07-07T10:30:46.310Z,69.50
2018-07-07T10:33:14.823Z,64.30
2018-07-07T10:35:43.427Z,61.70
2018-07-07T10:38:11.941Z,57.20
2018-07-07T10:40:40.773Z,58.70
2018-07-07T10:43:09.305Z,57.30
2018-07-07T10:45:37.881Z,55.80
2018-07-07T10:48:06.360Z,59.10
2018-07-07T10:50:34.926Z,58.00
2018-07-07T10:53:03.525Z,57.00
2018-07-07T10:55:32.096Z,59.10
2018-07-07T10:58:00.703Z,57.10
2018-07-07T11:00:29.507Z,57.50
2018-07-07T11:02:58.066Z,61.10
2018-07-07T11:05:26.710Z,62.20
2018-07-07T11:07:55.227Z,56.20
2018-07-07T11:10:23.708Z,56.60
2018-07-07T11:12:52.200Z,55.10
2018-07-07T11:15:20.767Z,54.20
2018-07-07T11:17:49.255Z,51.70
2018-07-07T11:20:17.777Z,51.50
2018-07-07T11:22:46.390Z,53.40
2018-07-07T11:25:14.956Z,50.70
2018-07-07T11:27:43.887Z,53.50
2018-07-07T11:30:12.478Z,51.00
2018-07-07T11:32:41.003Z,46.20
2018-07-07T11:35:09.764Z,42.80
2018-07-07T11:37:38.888Z,40.30
2018-07-07T11:40:07.572Z,41.10
2018-07-07T11:42:36.162Z,45.40
2018-07-07T11:45:05.029Z,43.80
2018-07-07T11:47:33.595Z,44.90
2018-07-07T11:50:02.168Z,45.70
2018-07-07T11:52:30.752Z,46.30
2018-07-07T11:54:59.249Z,45.40
2018-07-07T11:57:28.087Z,48.80
2018-07-07T11:59:56.687Z,44.20
2018-07-07T12:02:25.178Z,46.20
2018-07-07T12:04:53.740Z,46.50
2018-07-07T12:07:22.215Z,45.50
2018-07-07T12:09:50.712Z,44.70
2018-07-07T12:12:19.292Z,48.80
2018-07-07T12:14:47.907Z,47.40
2018-07-07T12:17:16.482Z,46.90
2018-07-07T12:19:45.009Z,43.80
2018-07-07T12:22:13.514Z,44.70
2018-07-07T12:24:42.073Z,45.10
2018-07-07T12:27:10.683Z,47.00
2018-07-07T12:29:39.234Z,43.70
2018-07-07T12:32:07.781Z,39.60
2018-07-07T12:34:36.410Z,44.60
2018-07-07T12:37:05.002Z,41.70
2018-07-07T12:39:33.499Z,40.70
2018-07-07T12:42:01.995Z,44.30
2018-07-07T12:44:30.518Z,42.20
2018-07-07T12:46:59.143Z,42.80
2018-07-07T12:49:27.962Z,41.00
2018-07-07T12:51:56.524Z,43.40
2018-07-07T12:54:25.068Z,40.40
2018-07-07T12:56:53.678Z,41.80
2018-07-07T12:59:22.191Z,42.30
2018-07-07T13:01:50.779Z,40.50
2018-07-07T13:04:19.569Z,40.00
2018-07-07T13:06:48.011Z,39.30
2018-07-07T13:09:16.495Z,40.80
2018-07-07T13:11:45.075Z,41.30
2018-07-07T13:14:13.546Z,42.20
2018-07-07T13:16:42.111Z,40.50
2018-07-07T13:19:10.609Z,41.40
2018-07-07T13:21:39.704Z,37.50
2018-07-07T13:24:08.335Z,41.30
2018-07-07T13:26:36.839Z,39.80
2018-07-07T13:29:05.443Z,40.00
2018-07-07T13:31:34.064Z,40.60
2018-07-07T13:34:02.690Z,40.00
2018-07-07T13:36:31.240Z,40.20
2018-07-07T13:41:28.030Z,39.40
2018-07-07T13:43:56.587Z,37.10
2018-07-07T13:46:25.140Z,38.70
2018-07-07T13:48:53.751Z,38.60
2018-07-07T13:51:22.285Z,39.30
2018-07-07T13:53:50.864Z,41.80
2018-07-07T13:58:47.664Z,40.70
2018-07-07T14:01:16.204Z,38.60
2018-07-07T14:03:45.573Z,38.40
2018-07-07T14:06:14.125Z,38.70
2018-07-07T14:08:43.031Z,40.70
2018-07-07T14:11:11.578Z,40.00
2018-07-07T14:13:40.073Z,39.10
2018-07-07T14:16:08.632Z,39.10
2018-07-07T14:18:37.120Z,40.70
2018-07-07T14:21:07.136Z,41.60
2018-07-07T14:23:35.742Z,40.30
2018-07-07T14:28:32.463Z,39.70
2018-07-07T14:31:00.981Z,39.90
2018-07-07T14:33:29.783Z,39.10
2018-07-07T14:35:58.280Z,42.90
2018-07-07T14:38:32.830Z,42.30
2018-07-07T14:41:21.358Z,40.50
2018-07-07T14:43:56.001Z,38.30
2018-07-07T14:46:25.109Z,38.00
2018-07-07T14:48:53.730Z,39.50
2018-07-07T14:51:22.525Z,41.20
2018-07-07T14:53:51.124Z,41.60
2018-07-07T14:56:20.806Z,39.70
2018-07-07T14:58:49.834Z,39.90
2018-07-07T15:01:18.395Z,42.40
2018-07-07T15:03:46.923Z,41.00
2018-07-07T15:06:15.424Z,42.80
2018-07-07T15:08:44.315Z,41.90
2018-07-07T15:11:12.905Z,41.70
2018-07-07T15:13:41.472Z,41.90
2018-07-07T15:16:10.087Z,40.80
2018-07-07T15:18:38.574Z,40.10
2018-07-07T15:21:07.174Z,40.50
2018-07-07T15:23:35.666Z,41.60
2018-07-07T15:26:04.142Z,43.10
2018-07-07T15:28:32.733Z,39.70
2018-07-07T15:31:01.721Z,42.80
2018-07-07T15:35:58.549Z,41.20
2018-07-07T15:38:27.033Z,44.00
2018-07-07T15:40:55.679Z,41.00
2018-07-07T15:43:24.217Z,42.60
2018-07-07T15:45:52.851Z,42.50
2018-07-07T15:48:21.471Z,42.50
2018-07-07T15:50:49.978Z,42.40
2018-07-07T15:53:18.669Z,41.40
2018-07-07T15:55:47.216Z,42.50
2018-07-07T15:58:15.690Z,44.10
2018-07-07T16:00:44.217Z,42.50
2018-07-07T16:03:12.703Z,43.00
2018-07-07T16:05:41.342Z,43.50
2018-07-07T16:08:09.933Z,44.00
2018-07-07T16:10:38.469Z,43.50
2018-07-07T16:13:06.971Z,43.30
2018-07-07T16:15:35.476Z,44.10
2018-07-07T16:18:04.025Z,45.20
2018-07-07T16:20:32.607Z,45.10
2018-07-07T16:23:01.121Z,46.30
2018-07-07T16:25:29.686Z,46.80
2018-07-07T16:27:58.281Z,47.40
2018-07-07T16:30:27.097Z,45.90
2018-07-07T16:32:55.661Z,46.20
2018-07-07T16:35:24.177Z,46.30
2018-07-07T16:37:52.724Z,46.60
2018-07-07T16:40:21.311Z,46.40
2018-07-07T16:42:49.896Z,47.10
2018-07-07T16:45:18.516Z,47.80
2018-07-07T16:47:47.058Z,48.00
2018-07-07T16:50:15.592Z,48.20
2018-07-07T16:52:44.352Z,48.70
2018-07-07T16:55:13.144Z,48.80
2018-07-07T16:57:42.761Z,49.80
2018-07-07T17:00:11.353Z,49.20
2018-07-07T17:02:39.996Z,49.60
2018-07-07T17:05:08.576Z,50.50
2018-07-07T17:07:37.831Z,50.60
2018-07-07T17:10:06.521Z,51.20
2018-07-07T17:12:35.216Z,50.80
2018-07-07T17:15:03.751Z,51.00
2018-07-07T17:20:01.151Z,51.20
2018-07-07T17:22:29.736Z,52.10
2018-07-07T17:24:58.679Z,51.90
2018-07-07T17:27:27.268Z,52.20
2018-07-07T17:29:56.249Z,52.50
2018-07-07T17:32:24.773Z,52.40
2018-07-07T17:34:53.525Z,53.80
2018-07-07T17:37:22.494Z,53.40
2018-07-07T17:39:51.078Z,53.20
2018-07-07T17:42:19.723Z,53.60
2018-07-07T17:44:49.431Z,54.00
2018-07-07T17:47:18.102Z,53.50
2018-07-07T17:49:46.660Z,53.90
2018-07-07T17:52:15.439Z,53.70
2018-07-07T17:54:44.069Z,54.20
2018-07-07T17:57:12.658Z,54.90
2018-07-07T17:59:41.225Z,54.60
2018-07-07T18:02:10.023Z,54.70
2018-07-07T18:04:38.672Z,54.80
2018-07-07T18:07:07.231Z,55.60
2018-07-07T18:09:35.829Z,54.90
2018-07-07T18:12:04.448Z,55.60
2018-07-07T18:14:32.982Z,55.20
2018-07-07T18:17:01.585Z,56.00
2018-07-07T18:19:30.280Z,55.60
2018-07-07T18:21:58.892Z,55.90
2018-07-07T18:24:34.515Z,56.30
2018-07-07T18:27:03.187Z,56.30
2018-07-07T18:29:32.453Z,56.50
2018-07-07T18:34:29.278Z,56.90
2018-07-07T18:36:57.832Z,57.00
2018-07-07T18:39:26.404Z,57.30
2018-07-07T18:41:55.053Z,57.50
2018-07-07T18:44:24.456Z,57.80
2018-07-07T18:46:53.004Z,58.20
2018-07-07T18:49:21.765Z,58.30
2018-07-07T18:51:52.473Z,58.50
2018-07-07T18:54:20.971Z,58.30
2018-07-07T18:56:49.689Z,58.90
2018-07-07T18:59:18.288Z,58.70
2018-07-07T19:01:46.944Z,59.40
2018-07-07T19:04:16.902Z,59.70
2018-07-07T19:06:47.115Z,60.30
2018-07-07T19:09:17.434Z,59.90
2018-07-07T19:11:46.117Z,61.90
2018-07-07T19:14:15.004Z,60.70
2018-07-07T19:16:46.891Z,60.80
2018-07-07T19:19:16.176Z,61.50
2018-07-07T19:21:50.970Z,61.30
2018-07-07T19:24:25.081Z,61.70
2018-07-07T19:26:55.180Z,62.70
2018-07-07T19:29:23.957Z,63.50
2018-07-07T19:31:57.821Z,62.90
2018-07-07T19:34:31.676Z,64.20
2018-07-07T19:39:34.223Z,64.50
2018-07-07T19:42:02.910Z,65.40
2018-07-07T19:44:31.774Z,65.50
2018-07-07T19:47:00.377Z,66.90
2018-07-07T19:49:29.261Z,67.10
2018-07-07T19:51:58.011Z,66.70
2018-07-07T19:54:26.609Z,66.90
2018-07-07T19:56:55.309Z,66.80
2018-07-07T19:59:23.887Z,66.90
2018-07-07T20:01:52.753Z,67.20
2018-07-07T20:04:21.393Z,68.00
2018-07-07T20:06:49.998Z,68.10
2018-07-07T20:09:18.913Z,68.30
2018-07-07T20:11:47.783Z,69.90
2018-07-07T20:14:22.042Z,69.40
2018-07-07T20:17:15.585Z,69.20
2018-07-07T20:21:03.928Z,69.70
2018-07-07T20:23:32.489Z,70.10
2018-07-07T20:26:01.131Z,70.60
2018-07-07T20:28:35.555Z,71.00
2018-07-07T20:31:04.513Z,71.30
2018-07-07T20:33:33.435Z,71.50
2018-07-07T20:36:02.136Z,71.70
2018-07-07T20:38:31.392Z,71.80
2018-07-07T20:41:00.126Z,72.50
2018-07-07T20:43:29.281Z,73.20
2018-07-07T20:45:57.864Z,73.30
2018-07-07T20:48:26.642Z,73.70
2018-07-07T20:50:55.635Z,74.10
2018-07-07T20:53:24.259Z,75.20
2018-07-07T20:55:53.136Z,75.40
2018-07-07T20:58:22.207Z,75.80
2018-07-07T21:00:50.772Z,75.80
2018-07-07T21:03:19.370Z,76.30
2018-07-07T21:05:48.602Z,78.10
2018-07-07T21:08:17.620Z,77.40
2018-07-07T21:10:46.207Z,79.20
2018-07-07T21:13:14.893Z,80.00
2018-07-07T21:15:43.451Z,80.20
2018-07-07T21:18:12.074Z,80.90
2018-07-07T21:20:40.723Z,81.80
2018-07-07T21:23:09.393Z,82.90
2018-07-07T21:25:37.967Z,84.30
2018-07-07T21:28:06.927Z,86.00
2018-07-07T21:30:35.491Z,88.40
2018-07-07T21:33:04.320Z,87.80
2018-07-07T21:35:33.387Z,90.00
2018-07-07T21:38:01.962Z,91.00
2018-07-07T21:40:30.915Z,90.90
2018-07-07T21:42:59.705Z,92.60
2018-07-07T21:45:28.885Z,93.50
2018-07-07T21:47:57.526Z,93.70
2018-07-07T21:50:26.143Z,94.20
2018-07-07T21:52:55.514Z,96.10
2018-07-07T21:55:24.189Z,95.70
2018-07-07T21:57:57.969Z,97.60
2018-07-07T22:00:32.402Z,98.70
2018-07-07T22:03:06.303Z,99.10
2018-07-07T22:05:39.114Z,99.90
2018-07-07T22:08:13.201Z,99.90
2018-07-07T22:10:41.777Z,99.90
2018-07-07T22:13:10.773Z,99.90
2018-07-07T22:15:39.370Z,99.90
2018-07-07T22:18:08.509Z,99.90
2018-07-07T22:20:37.824Z,99.90
2018-07-07T22:23:06.732Z,99.90
2018-07-07T22:25:35.567Z,99.90
2018-07-07T22:28:04.182Z,99.90
2018-07-07T22:30:33.108Z,99.90
2018-07-07T22:33:07.152Z,99.90
2018-07-07T22:35:41.137Z,99.90
2018-07-07T22:39:15.969Z,99.90
2018-07-07T22:42:02.090Z,99.90
2018-07-07T22:44:31.073Z,99.90
2018-07-07T22:46:59.832Z,99.90
2018-07-07T22:49:29.441Z,99.90
2018-07-07T22:51:58.028Z,99.90
2018-07-07T22:54:26.579Z,99.90
2018-07-07T22:56:55.119Z,99.90
2018-07-07T22:59:23.796Z,99.90
2018-07-07T23:01:52.328Z,99.90
2018-07-07T23:04:20.936Z,99.90
2018-07-07T23:06:49.936Z,99.90
2018-07-07T23:09:19.205Z,99.90
2018-07-07T23:11:47.891Z,99.90
2018-07-07T23:16:44.730Z,99.90
2018-07-07T23:19:13.332Z,99.90
2018-07-07T23:21:41.966Z,99.90
2018-07-07T23:24:10.552Z,99.90
2018-07-07T23:26:39.933Z,99.90
2018-07-07T23:29:08.919Z,99.90
2018-07-07T23:31:37.583Z,99.90
2018-07-07T23:34:06.404Z,99.90
2018-07-07T23:36:34.973Z,99.90
2018-07-07T23:39:03.910Z,99.90
2018-07-07T23:41:32.531Z,99.90
2018-07-07T23:44:01.803Z,99.90
2018-07-07T23:46:30.366Z,99.90
2018-07-07T23:48:58.997Z,99.90
2018-07-07T23:51:27.735Z,99.90
2018-07-07T23:53:56.322Z,99.90
2018-07-07T23:56:24.971Z,99.90
2018-07-07T23:58:53.667Z,99.90
